Erin Prairie, Wisconsin
Current Conditions -  °F | °C
As of 5:15 AM on Sunday 23 Nov 2014 (Local Time) from KRNH Reporting Station
Haze Haze  
Wind Chill: 41°   Ceiling: 800
Heat Index: 45°   Visibility: 1.5mi
Dew Point: 45°   Wind: 7mph
Humidity: 100%   Direction: 190°S
Pressure: 29.45"   Gusts: NA
Location:  44.9659°N, 92.3734°W
Report Text: KRNH 231115Z AUTO 19006KT 1 1/2SM BR OVC008 07/07 A2945 RMK AO2 T00700070
Loading
Personal Weather Stations






























Interactive Weather Map New forecast layout! Learn more

10-Day Weather Forecast

Advertisements
Track Severe Weather on mobile